sensor_id;sensor_type;location;lat;lon;timestamp;temperature;humidity
49441;DHT22;35317;51.978;6.296;2024-02-21T00:00:41;9.80;99.90
49441;DHT22;35317;51.978;6.296;2024-02-21T00:05:42;9.80;99.90
49441;DHT22;35317;51.978;6.296;2024-02-21T00:10:43;9.80;99.90
49441;DHT22;35317;51.978;6.296;2024-02-21T00:15:44;9.80;99.90
49441;DHT22;35317;51.978;6.296;2024-02-21T00:20:44;9.80;99.90
49441;DHT22;35317;51.978;6.296;2024-02-21T00:25:45;9.80;99.90
49441;DHT22;35317;51.978;6.296;2024-02-21T00:30:46;9.70;99.90
49441;DHT22;35317;51.978;6.296;2024-02-21T00:35:48;9.70;99.90
49441;DHT22;35317;51.978;6.296;2024-02-21T00:40:48;9.70;99.90
49441;DHT22;35317;51.978;6.296;2024-02-21T00:45:50;9.70;99.90
49441;DHT22;35317;51.978;6.296;2024-02-21T00:50:51;9.60;99.90
49441;DHT22;35317;51.978;6.296;2024-02-21T00:55:52;9.60;99.90
49441;DHT22;35317;51.978;6.296;2024-02-21T01:00:53;9.50;99.90
49441;DHT22;35317;51.978;6.296;2024-02-21T01:05:53;9.60;99.90
49441;DHT22;35317;51.978;6.296;2024-02-21T01:10:54;9.50;99.90
49441;DHT22;35317;51.978;6.296;2024-02-21T01:15:55;9.50;99.90
49441;DHT22;35317;51.978;6.296;2024-02-21T01:20:56;9.50;99.90
49441;DHT22;35317;51.978;6.296;2024-02-21T01:25:57;9.50;99.90
49441;DHT22;35317;51.978;6.296;2024-02-21T01:30:57;9.50;99.90
49441;DHT22;35317;51.978;6.296;2024-02-21T01:35:58;9.50;99.90
49441;DHT22;35317;51.978;6.296;2024-02-21T01:40:59;9.50;99.90
49441;DHT22;35317;51.978;6.296;2024-02-21T01:46:00;9.60;99.90
49441;DHT22;35317;51.978;6.296;2024-02-21T01:51:02;9.60;99.90
49441;DHT22;35317;51.978;6.296;2024-02-21T01:56:06;9.60;99.90
49441;DHT22;35317;51.978;6.296;2024-02-21T02:01:07;9.70;99.90
49441;DHT22;35317;51.978;6.296;2024-02-21T02:06:08;9.80;99.90
49441;DHT22;35317;51.978;6.296;2024-02-21T02:11:10;9.80;99.90
49441;DHT22;35317;51.978;6.296;2024-02-21T02:16:11;9.80;99.90
49441;DHT22;35317;51.978;6.296;2024-02-21T02:21:27;9.80;99.90
49441;DHT22;35317;51.978;6.296;2024-02-21T02:26:30;9.90;99.90
49441;DHT22;35317;51.978;6.296;2024-02-21T02:31:30;9.80;99.90
49441;DHT22;35317;51.978;6.296;2024-02-21T02:36:32;9.90;99.90
49441;DHT22;35317;51.978;6.296;2024-02-21T02:41:37;9.90;99.90
49441;DHT22;35317;51.978;6.296;2024-02-21T02:46:40;9.90;99.90
49441;DHT22;35317;51.978;6.296;2024-02-21T02:51:42;9.90;99.90
49441;DHT22;35317;51.978;6.296;2024-02-21T02:56:46;9.90;99.90
49441;DHT22;35317;51.978;6.296;2024-02-21T03:01:47;9.90;99.90
49441;DHT22;35317;51.978;6.296;2024-02-21T03:06:48;9.90;99.90
49441;DHT22;35317;51.978;6.296;2024-02-21T03:11:49;9.90;99.90
49441;DHT22;35317;51.978;6.296;2024-02-21T03:16:51;9.90;99.90
49441;DHT22;35317;51.978;6.296;2024-02-21T03:21:52;9.90;99.90
49441;DHT22;35317;51.978;6.296;2024-02-21T03:26:53;9.90;99.90
49441;DHT22;35317;51.978;6.296;2024-02-21T03:31:55;9.90;99.90
49441;DHT22;35317;51.978;6.296;2024-02-21T03:36:55;9.90;99.90
49441;DHT22;35317;51.978;6.296;2024-02-21T03:41:56;9.90;99.90
49441;DHT22;35317;51.978;6.296;2024-02-21T03:46:59;9.90;99.90
49441;DHT22;35317;51.978;6.296;2024-02-21T03:52:00;9.90;99.90
49441;DHT22;35317;51.978;6.296;2024-02-21T03:57:01;9.90;99.90
49441;DHT22;35317;51.978;6.296;2024-02-21T04:02:02;9.90;99.90
49441;DHT22;35317;51.978;6.296;2024-02-21T04:07:08;9.90;99.90
49441;DHT22;35317;51.978;6.296;2024-02-21T04:12:09;9.90;99.90
49441;DHT22;35317;51.978;6.296;2024-02-21T04:17:10;9.90;99.90
49441;DHT22;35317;51.978;6.296;2024-02-21T04:22:11;9.90;99.90
49441;DHT22;35317;51.978;6.296;2024-02-21T04:27:11;9.90;99.90
49441;DHT22;35317;51.978;6.296;2024-02-21T04:32:12;9.90;99.90
49441;DHT22;35317;51.978;6.296;2024-02-21T04:37:13;9.90;99.90
49441;DHT22;35317;51.978;6.296;2024-02-21T04:42:14;9.90;99.90
49441;DHT22;35317;51.978;6.296;2024-02-21T04:47:15;9.90;99.90
49441;DHT22;35317;51.978;6.296;2024-02-21T04:52:16;9.90;99.90
49441;DHT22;35317;51.978;6.296;2024-02-21T04:57:17;10.00;99.90
49441;DHT22;35317;51.978;6.296;2024-02-21T05:02:18;9.90;99.90
49441;DHT22;35317;51.978;6.296;2024-02-21T05:07:20;9.90;99.90
49441;DHT22;35317;51.978;6.296;2024-02-21T05:12:21;9.90;99.90
49441;DHT22;35317;51.978;6.296;2024-02-21T05:17:21;10.00;99.90
49441;DHT22;35317;51.978;6.296;2024-02-21T05:22:22;10.00;99.90
49441;DHT22;35317;51.978;6.296;2024-02-21T05:27:23;10.00;99.90
49441;DHT22;35317;51.978;6.296;2024-02-21T05:32:24;10.00;99.90
49441;DHT22;35317;51.978;6.296;2024-02-21T05:37:26;9.90;99.90
49441;DHT22;35317;51.978;6.296;2024-02-21T05:42:27;10.00;99.90
49441;DHT22;35317;51.978;6.296;2024-02-21T05:47:28;9.90;99.90
49441;DHT22;35317;51.978;6.296;2024-02-21T05:52:29;10.00;99.90
49441;DHT22;35317;51.978;6.296;2024-02-21T05:57:30;10.00;99.90
49441;DHT22;35317;51.978;6.296;2024-02-21T06:02:31;9.90;99.90
49441;DHT22;35317;51.978;6.296;2024-02-21T06:07:31;9.90;99.90
49441;DHT22;35317;51.978;6.296;2024-02-21T06:12:32;9.80;99.90
49441;DHT22;35317;51.978;6.296;2024-02-21T06:17:33;9.80;99.90
49441;DHT22;35317;51.978;6.296;2024-02-21T06:22:34;9.80;99.90
49441;DHT22;35317;51.978;6.296;2024-02-21T06:27:34;9.80;99.90
49441;DHT22;35317;51.978;6.296;2024-02-21T06:32:35;9.80;99.90
49441;DHT22;35317;51.978;6.296;2024-02-21T06:37:36;9.80;99.90
49441;DHT22;35317;51.978;6.296;2024-02-21T06:42:38;9.80;99.90
49441;DHT22;35317;51.978;6.296;2024-02-21T06:47:39;9.80;99.90
49441;DHT22;35317;51.978;6.296;2024-02-21T06:52:39;9.80;99.90
49441;DHT22;35317;51.978;6.296;2024-02-21T06:57:41;9.80;99.90
49441;DHT22;35317;51.978;6.296;2024-02-21T07:02:41;9.80;99.90
49441;DHT22;35317;51.978;6.296;2024-02-21T07:07:42;9.80;99.90
49441;DHT22;35317;51.978;6.296;2024-02-21T07:12:43;9.90;99.90
49441;DHT22;35317;51.978;6.296;2024-02-21T07:17:44;9.80;99.90
49441;DHT22;35317;51.978;6.296;2024-02-21T07:22:45;9.80;99.90
49441;DHT22;35317;51.978;6.296;2024-02-21T07:27:46;9.80;99.90
49441;DHT22;35317;51.978;6.296;2024-02-21T07:32:49;9.90;99.90
49441;DHT22;35317;51.978;6.296;2024-02-21T07:37:51;9.90;99.90
49441;DHT22;35317;51.978;6.296;2024-02-21T07:42:51;9.90;99.90
49441;DHT22;35317;51.978;6.296;2024-02-21T07:47:52;10.00;99.90
49441;DHT22;35317;51.978;6.296;2024-02-21T07:52:53;10.00;99.90
49441;DHT22;35317;51.978;6.296;2024-02-21T07:57:54;10.00;99.90
49441;DHT22;35317;51.978;6.296;2024-02-21T08:02:55;10.00;99.90
49441;DHT22;35317;51.978;6.296;2024-02-21T08:07:55;10.10;99.90
49441;DHT22;35317;51.978;6.296;2024-02-21T08:12:56;10.10;99.90
49441;DHT22;35317;51.978;6.296;2024-02-21T08:17:57;10.20;99.90
49441;DHT22;35317;51.978;6.296;2024-02-21T08:23:01;10.20;99.90
49441;DHT22;35317;51.978;6.296;2024-02-21T08:28:03;10.30;99.90
49441;DHT22;35317;51.978;6.296;2024-02-21T08:33:04;10.40;99.90
49441;DHT22;35317;51.978;6.296;2024-02-21T08:38:04;10.40;99.90
49441;DHT22;35317;51.978;6.296;2024-02-21T08:43:05;10.50;99.90
49441;DHT22;35317;51.978;6.296;2024-02-21T08:48:06;10.60;99.90
49441;DHT22;35317;51.978;6.296;2024-02-21T08:53:08;10.70;99.90
49441;DHT22;35317;51.978;6.296;2024-02-21T08:58:09;10.70;99.90
49441;DHT22;35317;51.978;6.296;2024-02-21T09:03:10;10.70;99.90
49441;DHT22;35317;51.978;6.296;2024-02-21T09:08:10;10.80;99.90
49441;DHT22;35317;51.978;6.296;2024-02-21T09:13:11;10.80;99.90
49441;DHT22;35317;51.978;6.296;2024-02-21T09:18:12;10.80;99.90
49441;DHT22;35317;51.978;6.296;2024-02-21T09:23:13;10.90;99.90
49441;DHT22;35317;51.978;6.296;2024-02-21T09:28:14;10.90;99.90
49441;DHT22;35317;51.978;6.296;2024-02-21T09:33:14;10.90;99.90
49441;DHT22;35317;51.978;6.296;2024-02-21T09:38:15;11.00;99.90
49441;DHT22;35317;51.978;6.296;2024-02-21T09:43:17;11.10;99.90
49441;DHT22;35317;51.978;6.296;2024-02-21T09:49:05;11.10;99.90
49441;DHT22;35317;51.978;6.296;2024-02-21T09:54:15;11.10;99.90
49441;DHT22;35317;51.978;6.296;2024-02-21T09:59:16;11.20;99.90
49441;DHT22;35317;51.978;6.296;2024-02-21T10:04:17;11.20;99.90
49441;DHT22;35317;51.978;6.296;2024-02-21T10:09:26;11.30;99.90
49441;DHT22;35317;51.978;6.296;2024-02-21T10:14:28;11.30;99.90
49441;DHT22;35317;51.978;6.296;2024-02-21T10:19:29;11.40;99.90
49441;DHT22;35317;51.978;6.296;2024-02-21T10:24:30;11.40;99.90
49441;DHT22;35317;51.978;6.296;2024-02-21T10:29:33;11.40;99.90
49441;DHT22;35317;51.978;6.296;2024-02-21T10:34:39;11.50;99.90
49441;DHT22;35317;51.978;6.296;2024-02-21T10:39:42;11.50;99.90
49441;DHT22;35317;51.978;6.296;2024-02-21T10:44:45;11.40;99.90
49441;DHT22;35317;51.978;6.296;2024-02-21T10:50:00;11.40;99.90
49441;DHT22;35317;51.978;6.296;2024-02-21T10:55:07;11.40;99.90
49441;DHT22;35317;51.978;6.296;2024-02-21T11:00:12;11.30;99.90
49441;DHT22;35317;51.978;6.296;2024-02-21T11:05:15;11.20;99.90
49441;DHT22;35317;51.978;6.296;2024-02-21T11:10:22;11.10;99.90
49441;DHT22;35317;51.978;6.296;2024-02-21T11:15:27;11.00;99.90
49441;DHT22;35317;51.978;6.296;2024-02-21T11:20:35;11.00;99.90
49441;DHT22;35317;51.978;6.296;2024-02-21T11:25:36;11.00;99.90
49441;DHT22;35317;51.978;6.296;2024-02-21T11:30:37;11.10;99.90
49441;DHT22;35317;51.978;6.296;2024-02-21T11:35:43;11.30;99.90
49441;DHT22;35317;51.978;6.296;2024-02-21T11:40:46;11.40;99.90
49441;DHT22;35317;51.978;6.296;2024-02-21T11:45:47;11.50;99.90
49441;DHT22;35317;51.978;6.296;2024-02-21T11:50:57;11.50;99.90
49441;DHT22;35317;51.978;6.296;2024-02-21T11:55:58;11.50;99.90
49441;DHT22;35317;51.978;6.296;2024-02-21T12:00:59;11.50;99.90
49441;DHT22;35317;51.978;6.296;2024-02-21T12:06:03;11.50;99.90
49441;DHT22;35317;51.978;6.296;2024-02-21T12:11:22;11.60;99.90
49441;DHT22;35317;51.978;6.296;2024-02-21T12:16:23;11.50;99.90
49441;DHT22;35317;51.978;6.296;2024-02-21T12:21:27;11.40;99.90
49441;DHT22;35317;51.978;6.296;2024-02-21T12:26:30;11.30;99.90
49441;DHT22;35317;51.978;6.296;2024-02-21T12:31:32;11.30;99.90
49441;DHT22;35317;51.978;6.296;2024-02-21T12:36:33;11.20;99.90
49441;DHT22;35317;51.978;6.296;2024-02-21T12:41:35;11.30;99.90
49441;DHT22;35317;51.978;6.296;2024-02-21T12:46:38;11.40;99.90
49441;DHT22;35317;51.978;6.296;2024-02-21T12:51:40;11.60;99.90
49441;DHT22;35317;51.978;6.296;2024-02-21T12:56:42;11.70;99.90
49441;DHT22;35317;51.978;6.296;2024-02-21T13:01:43;11.80;99.90
49441;DHT22;35317;51.978;6.296;2024-02-21T13:06:44;11.90;99.90
49441;DHT22;35317;51.978;6.296;2024-02-21T13:11:45;12.00;99.90
49441;DHT22;35317;51.978;6.296;2024-02-21T13:16:46;12.10;99.90
49441;DHT22;35317;51.978;6.296;2024-02-21T13:21:47;12.10;99.90
49441;DHT22;35317;51.978;6.296;2024-02-21T13:26:48;12.10;99.90
49441;DHT22;35317;51.978;6.296;2024-02-21T13:31:49;12.20;99.90
49441;DHT22;35317;51.978;6.296;2024-02-21T13:36:50;12.20;99.90
49441;DHT22;35317;51.978;6.296;2024-02-21T13:41:51;12.20;99.90
49441;DHT22;35317;51.978;6.296;2024-02-21T13:46:52;12.30;99.90
49441;DHT22;35317;51.978;6.296;2024-02-21T13:51:54;12.40;99.90
49441;DHT22;35317;51.978;6.296;2024-02-21T13:56:54;12.40;99.90
49441;DHT22;35317;51.978;6.296;2024-02-21T14:01:57;12.50;99.90
49441;DHT22;35317;51.978;6.296;2024-02-21T14:06:59;12.60;99.90
49441;DHT22;35317;51.978;6.296;2024-02-21T14:12:00;12.60;99.90
49441;DHT22;35317;51.978;6.296;2024-02-21T14:17:01;12.60;99.90
49441;DHT22;35317;51.978;6.296;2024-02-21T14:22:02;12.60;99.90
49441;DHT22;35317;51.978;6.296;2024-02-21T14:27:03;12.50;99.90
49441;DHT22;35317;51.978;6.296;2024-02-21T14:32:04;12.50;99.90
49441;DHT22;35317;51.978;6.296;2024-02-21T14:37:06;12.40;99.90
49441;DHT22;35317;51.978;6.296;2024-02-21T14:42:07;12.40;99.90
49441;DHT22;35317;51.978;6.296;2024-02-21T14:47:11;12.30;99.90
49441;DHT22;35317;51.978;6.296;2024-02-21T14:52:11;12.30;99.90
49441;DHT22;35317;51.978;6.296;2024-02-21T14:57:12;12.30;99.90
49441;DHT22;35317;51.978;6.296;2024-02-21T15:02:13;12.20;99.90
49441;DHT22;35317;51.978;6.296;2024-02-21T15:07:14;12.20;99.90
49441;DHT22;35317;51.978;6.296;2024-02-21T15:12:14;12.20;99.90
49441;DHT22;35317;51.978;6.296;2024-02-21T15:17:15;12.10;99.90
49441;DHT22;35317;51.978;6.296;2024-02-21T15:22:16;12.10;99.90
49441;DHT22;35317;51.978;6.296;2024-02-21T15:27:18;12.10;99.90
49441;DHT22;35317;51.978;6.296;2024-02-21T15:32:19;12.00;99.90
49441;DHT22;35317;51.978;6.296;2024-02-21T15:37:20;12.00;99.90
49441;DHT22;35317;51.978;6.296;2024-02-21T15:42:21;11.90;99.90
49441;DHT22;35317;51.978;6.296;2024-02-21T15:47:21;11.80;99.90
49441;DHT22;35317;51.978;6.296;2024-02-21T15:52:23;11.70;99.90
49441;DHT22;35317;51.978;6.296;2024-02-21T15:57:24;11.70;99.90
49441;DHT22;35317;51.978;6.296;2024-02-21T16:02:25;11.60;99.90
49441;DHT22;35317;51.978;6.296;2024-02-21T16:07:26;11.50;99.90
49441;DHT22;35317;51.978;6.296;2024-02-21T16:12:27;11.40;99.90
49441;DHT22;35317;51.978;6.296;2024-02-21T16:17:27;11.20;99.90
49441;DHT22;35317;51.978;6.296;2024-02-21T16:22:28;11.10;99.90
49441;DHT22;35317;51.978;6.296;2024-02-21T16:27:29;11.00;99.90
49441;DHT22;35317;51.978;6.296;2024-02-21T16:32:30;11.00;99.90
49441;DHT22;35317;51.978;6.296;2024-02-21T16:37:31;10.90;99.90
49441;DHT22;35317;51.978;6.296;2024-02-21T16:42:32;10.80;99.90
49441;DHT22;35317;51.978;6.296;2024-02-21T16:47:34;10.70;99.90
49441;DHT22;35317;51.978;6.296;2024-02-21T16:52:35;10.60;99.90
49441;DHT22;35317;51.978;6.296;2024-02-21T16:57:36;10.50;99.90
49441;DHT22;35317;51.978;6.296;2024-02-21T17:02:40;10.40;99.90
49441;DHT22;35317;51.978;6.296;2024-02-21T17:07:41;10.40;99.90
49441;DHT22;35317;51.978;6.296;2024-02-21T17:12:42;10.30;99.90
49441;DHT22;35317;51.978;6.296;2024-02-21T17:17:42;10.20;99.90
49441;DHT22;35317;51.978;6.296;2024-02-21T17:22:43;10.10;99.90
49441;DHT22;35317;51.978;6.296;2024-02-21T17:27:44;10.10;99.90
49441;DHT22;35317;51.978;6.296;2024-02-21T17:32:45;10.00;99.90
49441;DHT22;35317;51.978;6.296;2024-02-21T17:37:46;10.00;99.90
49441;DHT22;35317;51.978;6.296;2024-02-21T17:42:47;9.90;99.90
49441;DHT22;35317;51.978;6.296;2024-02-21T17:47:47;9.90;99.90
49441;DHT22;35317;51.978;6.296;2024-02-21T17:52:48;9.80;99.90
49441;DHT22;35317;51.978;6.296;2024-02-21T17:57:49;9.80;99.90
49441;DHT22;35317;51.978;6.296;2024-02-21T18:02:50;9.80;99.90
49441;DHT22;35317;51.978;6.296;2024-02-21T18:07:51;9.80;99.90
49441;DHT22;35317;51.978;6.296;2024-02-21T18:12:51;9.70;99.90
49441;DHT22;35317;51.978;6.296;2024-02-21T18:17:52;9.80;99.90
49441;DHT22;35317;51.978;6.296;2024-02-21T18:22:53;9.70;99.90
49441;DHT22;35317;51.978;6.296;2024-02-21T18:27:54;9.70;99.90
49441;DHT22;35317;51.978;6.296;2024-02-21T18:32:55;9.70;99.90
49441;DHT22;35317;51.978;6.296;2024-02-21T18:37:57;9.70;99.90
49441;DHT22;35317;51.978;6.296;2024-02-21T18:42:58;9.60;99.90
49441;DHT22;35317;51.978;6.296;2024-02-21T18:47:59;9.60;99.90
49441;DHT22;35317;51.978;6.296;2024-02-21T18:53:00;9.60;99.90
49441;DHT22;35317;51.978;6.296;2024-02-21T18:58:02;9.60;99.90
49441;DHT22;35317;51.978;6.296;2024-02-21T19:03:03;9.60;99.90
49441;DHT22;35317;51.978;6.296;2024-02-21T19:08:04;9.50;99.90
49441;DHT22;35317;51.978;6.296;2024-02-21T19:13:05;9.50;99.90
49441;DHT22;35317;51.978;6.296;2024-02-21T19:18:06;9.50;99.90
49441;DHT22;35317;51.978;6.296;2024-02-21T19:23:07;9.50;99.90
49441;DHT22;35317;51.978;6.296;2024-02-21T19:28:09;9.50;99.90
49441;DHT22;35317;51.978;6.296;2024-02-21T19:33:13;9.40;99.90
49441;DHT22;35317;51.978;6.296;2024-02-21T19:38:14;9.40;99.90
49441;DHT22;35317;51.978;6.296;2024-02-21T19:43:15;9.40;99.90
49441;DHT22;35317;51.978;6.296;2024-02-21T19:48:16;9.50;99.90
49441;DHT22;35317;51.978;6.296;2024-02-21T19:53:18;9.50;99.90
49441;DHT22;35317;51.978;6.296;2024-02-21T19:58:19;9.50;99.90
49441;DHT22;35317;51.978;6.296;2024-02-21T20:03:20;9.50;99.90
49441;DHT22;35317;51.978;6.296;2024-02-21T20:08:21;9.50;99.90
49441;DHT22;35317;51.978;6.296;2024-02-21T20:13:22;9.50;99.90
49441;DHT22;35317;51.978;6.296;2024-02-21T20:18:23;9.50;99.90
49441;DHT22;35317;51.978;6.296;2024-02-21T20:23:23;9.50;99.90
49441;DHT22;35317;51.978;6.296;2024-02-21T20:28:24;9.50;99.90
49441;DHT22;35317;51.978;6.296;2024-02-21T20:33:25;9.50;99.90
49441;DHT22;35317;51.978;6.296;2024-02-21T20:38:26;9.50;99.90
49441;DHT22;35317;51.978;6.296;2024-02-21T20:43:27;9.50;99.90
49441;DHT22;35317;51.978;6.296;2024-02-21T20:48:28;9.60;99.90
49441;DHT22;35317;51.978;6.296;2024-02-21T20:53:31;9.50;99.90
49441;DHT22;35317;51.978;6.296;2024-02-21T20:58:32;9.60;99.90
49441;DHT22;35317;51.978;6.296;2024-02-21T21:03:33;9.60;99.90
49441;DHT22;35317;51.978;6.296;2024-02-21T21:08:34;9.60;99.90
49441;DHT22;35317;51.978;6.296;2024-02-21T21:13:35;9.60;99.90
49441;DHT22;35317;51.978;6.296;2024-02-21T21:18:35;9.60;99.90
49441;DHT22;35317;51.978;6.296;2024-02-21T21:23:37;9.60;99.90
49441;DHT22;35317;51.978;6.296;2024-02-21T21:28:38;9.70;99.90
49441;DHT22;35317;51.978;6.296;2024-02-21T21:33:38;9.60;99.90
49441;DHT22;35317;51.978;6.296;2024-02-21T21:38:39;9.70;99.90
49441;DHT22;35317;51.978;6.296;2024-02-21T21:43:40;9.70;99.90
49441;DHT22;35317;51.978;6.296;2024-02-21T21:48:42;9.70;99.90
49441;DHT22;35317;51.978;6.296;2024-02-21T21:53:43;9.70;99.90
49441;DHT22;35317;51.978;6.296;2024-02-21T21:58:46;9.70;99.90
49441;DHT22;35317;51.978;6.296;2024-02-21T22:03:46;9.70;99.90
49441;DHT22;35317;51.978;6.296;2024-02-21T22:08:47;9.70;99.90
49441;DHT22;35317;51.978;6.296;2024-02-21T22:13:48;9.80;99.90
49441;DHT22;35317;51.978;6.296;2024-02-21T22:18:49;9.80;99.90
49441;DHT22;35317;51.978;6.296;2024-02-21T22:23:50;9.80;99.90
49441;DHT22;35317;51.978;6.296;2024-02-21T22:28:51;9.80;99.90
49441;DHT22;35317;51.978;6.296;2024-02-21T22:33:52;9.80;99.90
49441;DHT22;35317;51.978;6.296;2024-02-21T22:38:53;9.80;99.90
49441;DHT22;35317;51.978;6.296;2024-02-21T22:43:54;9.90;99.90
49441;DHT22;35317;51.978;6.296;2024-02-21T22:48:55;9.90;99.90
49441;DHT22;35317;51.978;6.296;2024-02-21T22:53:56;9.90;99.90
49441;DHT22;35317;51.978;6.296;2024-02-21T22:58:57;10.00;99.90
49441;DHT22;35317;51.978;6.296;2024-02-21T23:03:58;10.00;99.90
49441;DHT22;35317;51.978;6.296;2024-02-21T23:08:59;10.00;99.90
49441;DHT22;35317;51.978;6.296;2024-02-21T23:14:01;10.10;99.90
49441;DHT22;35317;51.978;6.296;2024-02-21T23:19:01;10.10;99.90
49441;DHT22;35317;51.978;6.296;2024-02-21T23:24:02;10.10;99.90
49441;DHT22;35317;51.978;6.296;2024-02-21T23:29:03;10.10;99.90
49441;DHT22;35317;51.978;6.296;2024-02-21T23:34:04;10.10;99.90
49441;DHT22;35317;51.978;6.296;2024-02-21T23:39:05;10.20;99.90
49441;DHT22;35317;51.978;6.296;2024-02-21T23:44:06;10.20;99.90
49441;DHT22;35317;51.978;6.296;2024-02-21T23:49:07;10.20;99.90
49441;DHT22;35317;51.978;6.296;2024-02-21T23:54:08;10.30;99.90
49441;DHT22;35317;51.978;6.296;2024-02-21T23:59:09;10.30;99.90
